Hauptseite
METAR-TAF:

METAR-TAF

Flughäfen :

Flughafen Berlin-Schönefeld

Berlin-Schönefeld, Deutschland

Breite: 52-23N, Länge: 013-31E, Höhe: 47 m

Beobachtung

Neuester Wetterbericht von vor 10 Minuten, um 23:20 UTC
Wind 2 kt aus Nordost
Temperatur 13°C
Luftfeuchtigkeit 82%
Luftdruck 1021 hPa
Sichtweite 10 km oder mehr
keine Wolken unter 1500 m und keine Kumulonimbus oder Gewitterwolken

METAR: EDDB 212320Z 05002KT CAVOK 13/10 Q1021 NOSIG

Zeit: 01:30 (23:30 UTC)

Prognose

Neuester Wetterbericht von vor 6 Stunden und 30 Minuten, um 17:00 UTC
Gültige Prognose vom 21 um 18 UTC bis 22 um 18 UTC
Wind 4 kt aus Nordost
Sichtweite 10 km oder mehr
keine Wolken unter 1500 m und keine Kumulonimbus oder Gewitterwolken
Übergehend zu
vom 22 um 06 UTC bis 22 um 08 UTC
Wind 6 kt aus Ost/Südost

TAF: EDDB 211700Z 2118/2218 04004KT CAVOK BECMG 2206/2208 12006KT

Wetterbeobachtungen und Prognosen von mehr als 4000 Flughäfen (METAR und TAF Bericht).

Die verfügbaren Stationen werden durch gelbe und rote Markierungen auf der Karte dargestellt.

Führen Sie die Maus auf sie, um den Namen der Station zu sehen.

Darauf klicken, um die Beobachtung von Wetterbeobachtungen und Prognosen zu sehen.

Um die Karte zu ändern : klicken Sie auf den grünen Tasten mit einem schwarzen Kreuz Zum Vergrößern, auf den grünen Button mit einem Gedankenstrich zu verkleinern, oder auf die grünen Pfeile für benachbarte Karten.


METAR-TAF: